createdAt,value
2023-03-22T00:01:24.973Z,69.68
2023-03-22T00:03:52.318Z,69.75
2023-03-22T00:06:19.338Z,69.46
2023-03-22T00:08:50.570Z,69.12
2023-03-22T00:11:17.937Z,69.19
2023-03-22T00:13:46.869Z,69.52
2023-03-22T00:16:14.851Z,68.93
2023-03-22T00:18:41.733Z,69.10
2023-03-22T00:21:13.352Z,69.27
2023-03-22T00:23:40.790Z,69.65
2023-03-22T00:26:08.567Z,69.23
2023-03-22T00:28:36.564Z,69.67
2023-03-22T00:31:05.274Z,69.66
2023-03-22T00:33:33.403Z,68.93
2023-03-22T00:36:08.652Z,69.15
2023-03-22T00:38:42.942Z,69.12
2023-03-22T00:41:18.958Z,69.05
2023-03-22T00:43:47.071Z,69.05
2023-03-22T00:46:15.277Z,69.36
2023-03-22T00:48:43.384Z,69.16
2023-03-22T00:51:10.811Z,69.28
2023-03-22T00:53:37.620Z,69.47
2023-03-22T00:56:05.630Z,69.61
2023-03-22T00:58:41.407Z,69.86
2023-03-22T01:01:08.221Z,69.78
2023-03-22T01:03:35.046Z,70.08
2023-03-22T01:06:01.853Z,70.11
2023-03-22T01:08:33.221Z,70.28
2023-03-22T01:11:01.162Z,70.25
2023-03-22T01:13:27.956Z,69.63
2023-03-22T01:15:54.416Z,70.09
2023-03-22T01:18:20.855Z,70.08
2023-03-22T01:20:47.435Z,69.88
2023-03-22T01:23:13.929Z,69.61
2023-03-22T01:25:40.873Z,69.80
2023-03-22T01:28:08.655Z,69.87
2023-03-22T01:30:35.768Z,69.59
2023-03-22T01:33:02.823Z,69.73
2023-03-22T01:35:33.149Z,70.21
2023-03-22T01:37:59.757Z,70.36
2023-03-22T01:40:27.521Z,70.70
2023-03-22T01:42:55.230Z,70.96
2023-03-22T01:45:22.426Z,70.91
2023-03-22T01:47:54.874Z,71.03
2023-03-22T01:50:22.978Z,70.65
2023-03-22T01:52:52.128Z,71.14
2023-03-22T01:55:26.009Z,71.41
2023-03-22T01:58:05.460Z,71.41
2023-03-22T02:00:41.274Z,71.47
2023-03-22T02:03:37.073Z,71.99
2023-03-22T02:06:04.351Z,71.80
2023-03-22T02:08:32.375Z,71.99
2023-03-22T02:11:03.247Z,71.98
2023-03-22T02:14:09.736Z,72.12
2023-03-22T02:17:06.803Z,72.14
2023-03-22T02:20:13.326Z,72.13
2023-03-22T02:23:00.764Z,72.03
2023-03-22T02:25:40.399Z,72.31
2023-03-22T02:28:29.341Z,72.20
2023-03-22T02:31:14.041Z,72.48
2023-03-22T02:34:15.530Z,72.58
2023-03-22T02:36:58.303Z,72.49
2023-03-22T02:39:35.300Z,72.66
2023-03-22T02:42:17.579Z,72.63
2023-03-22T02:45:00.383Z,72.58
2023-03-22T02:47:38.551Z,72.77
2023-03-22T02:50:28.495Z,72.72
2023-03-22T02:53:12.842Z,72.82
2023-03-22T02:55:51.168Z,73.08
2023-03-22T02:58:22.865Z,73.37
2023-03-22T03:00:54.423Z,72.90
2023-03-22T03:03:25.486Z,73.27
2023-03-22T03:05:55.851Z,73.17
2023-03-22T03:08:24.902Z,73.20
2023-03-22T03:10:53.272Z,72.87
2023-03-22T03:13:20.005Z,73.25
2023-03-22T03:15:52.623Z,73.12
2023-03-22T03:18:29.584Z,73.22
2023-03-22T03:21:30.233Z,73.56
2023-03-22T03:24:36.618Z,73.00
2023-03-22T03:27:12.821Z,72.77
2023-03-22T03:30:02.886Z,72.93
2023-03-22T03:32:52.448Z,72.92
2023-03-22T03:35:27.215Z,72.92
2023-03-22T03:37:59.197Z,73.47
2023-03-22T03:40:35.183Z,72.81
2023-03-22T03:43:04.703Z,72.93
2023-03-22T03:45:31.160Z,73.10
2023-03-22T03:48:01.007Z,73.65
2023-03-22T03:50:28.008Z,73.71
2023-03-22T03:52:56.054Z,74.20
2023-03-22T03:55:24.087Z,74.44
2023-03-22T03:57:50.792Z,74.36
2023-03-22T04:00:17.975Z,75.79
2023-03-22T04:03:06.285Z,75.41
2023-03-22T04:05:45.824Z,75.77
2023-03-22T04:08:12.522Z,76.46
2023-03-22T04:10:40.685Z,76.21
2023-03-22T04:13:07.371Z,77.17
2023-03-22T04:15:33.904Z,76.16
2023-03-22T04:18:03.744Z,76.25
2023-03-22T04:20:31.536Z,76.76
2023-03-22T04:22:58.070Z,76.44
2023-03-22T04:25:29.815Z,77.18
2023-03-22T04:28:04.161Z,77.30
2023-03-22T04:30:36.361Z,77.01
2023-03-22T04:33:22.783Z,77.07
2023-03-22T04:36:10.331Z,77.18
2023-03-22T04:38:49.449Z,77.25
2023-03-22T04:41:20.414Z,78.07
2023-03-22T04:43:50.921Z,77.68
2023-03-22T04:46:17.937Z,77.98
2023-03-22T04:48:50.850Z,78.33
2023-03-22T04:51:18.108Z,78.59
2023-03-22T04:54:00.369Z,77.55
2023-03-22T04:56:27.045Z,78.19
2023-03-22T04:58:54.178Z,78.30
2023-03-22T05:01:20.654Z,78.20
2023-03-22T05:03:54.133Z,78.86
2023-03-22T05:06:22.616Z,78.61
2023-03-22T05:09:05.986Z,78.61
2023-03-22T05:11:32.484Z,77.93
2023-03-22T05:14:13.053Z,77.77
2023-03-22T05:16:40.740Z,78.19
2023-03-22T05:19:13.889Z,77.75
2023-03-22T05:21:44.151Z,78.48
2023-03-22T05:24:11.563Z,78.19
2023-03-22T05:26:42.298Z,77.69
2023-03-22T05:29:11.096Z,78.02
2023-03-22T05:32:00.747Z,77.85
2023-03-22T05:34:35.257Z,78.48
2023-03-22T05:37:10.207Z,78.17
2023-03-22T05:39:47.676Z,77.92
2023-03-22T05:42:14.271Z,77.90
2023-03-22T05:44:40.919Z,78.00
2023-03-22T05:47:11.489Z,78.71
2023-03-22T05:49:45.599Z,78.98
2023-03-22T05:52:12.303Z,78.76
2023-03-22T05:54:56.743Z,77.84
2023-03-22T05:57:23.288Z,78.10
2023-03-22T05:59:49.815Z,78.27
2023-03-22T06:02:23.720Z,78.12
2023-03-22T06:04:50.302Z,78.59
2023-03-22T06:07:18.204Z,77.98
2023-03-22T06:09:50.142Z,77.98
2023-03-22T06:12:24.719Z,78.03
2023-03-22T06:15:08.822Z,78.21
2023-03-22T06:17:35.502Z,78.34
2023-03-22T06:20:11.842Z,78.39
2023-03-22T06:22:41.319Z,77.93
2023-03-22T06:25:09.362Z,78.27
2023-03-22T06:27:40.499Z,78.24
2023-03-22T06:30:08.150Z,78.12
2023-03-22T06:32:45.912Z,78.25
2023-03-22T06:35:14.213Z,78.48
2023-03-22T06:37:40.688Z,77.96
2023-03-22T06:40:08.989Z,78.46
2023-03-22T06:42:35.801Z,77.62
2023-03-22T06:45:08.650Z,77.58
2023-03-22T06:47:37.746Z,77.26
2023-03-22T06:50:04.387Z,77.08
2023-03-22T06:52:50.818Z,76.58
2023-03-22T06:55:17.653Z,76.21
2023-03-22T06:57:44.095Z,75.88
2023-03-22T07:00:11.204Z,75.18
2023-03-22T07:02:37.688Z,74.90
2023-03-22T07:05:28.129Z,74.51
2023-03-22T07:07:54.691Z,74.38
2023-03-22T07:10:21.328Z,73.46
2023-03-22T07:12:48.643Z,73.28
2023-03-22T07:15:17.576Z,72.26
2023-03-22T07:18:04.417Z,71.93
2023-03-22T07:20:36.754Z,71.44
2023-03-22T07:23:04.569Z,71.48
2023-03-22T07:25:35.478Z,70.72
2023-03-22T07:28:16.268Z,70.21
2023-03-22T07:30:43.645Z,69.66
2023-03-22T07:33:11.169Z,69.66
2023-03-22T07:35:39.755Z,69.03
2023-03-22T07:38:06.509Z,69.13
2023-03-22T07:40:33.610Z,68.95
2023-03-22T07:43:00.411Z,68.74
2023-03-22T07:45:57.997Z,68.34
2023-03-22T07:48:43.159Z,67.51
2023-03-22T07:51:28.138Z,67.45
2023-03-22T07:53:54.584Z,66.50
2023-03-22T07:56:21.181Z,65.31
2023-03-22T07:58:47.628Z,65.20
2023-03-22T08:01:14.153Z,63.91
2023-03-22T08:04:03.589Z,62.67
2023-03-22T08:06:49.053Z,62.31
2023-03-22T08:09:16.354Z,61.37
2023-03-22T08:11:42.891Z,60.61
2023-03-22T08:14:09.722Z,60.81
2023-03-22T08:16:38.476Z,60.42
2023-03-22T08:19:05.959Z,59.67
2023-03-22T08:21:36.213Z,59.89
2023-03-22T08:24:04.119Z,59.38
2023-03-22T08:26:39.592Z,58.92
2023-03-22T08:29:14.832Z,58.38
2023-03-22T08:31:46.937Z,58.13
2023-03-22T08:34:13.364Z,57.48
2023-03-22T08:36:39.801Z,57.62
2023-03-22T08:39:08.315Z,57.20
2023-03-22T08:41:45.884Z,56.97
2023-03-22T08:44:12.899Z,56.91
2023-03-22T08:46:40.262Z,56.19
2023-03-22T08:49:06.847Z,56.85
2023-03-22T08:51:39.069Z,55.78
2023-03-22T08:54:13.627Z,55.82
2023-03-22T08:57:19.218Z,55.98
2023-03-22T08:59:58.789Z,55.30
2023-03-22T09:02:33.366Z,54.97
2023-03-22T09:05:00.597Z,55.33
2023-03-22T09:07:27.752Z,55.23
2023-03-22T09:10:09.677Z,54.38
2023-03-22T09:12:39.337Z,53.98
2023-03-22T09:15:07.414Z,54.38
2023-03-22T09:17:36.349Z,54.27
2023-03-22T09:20:12.504Z,53.69
2023-03-22T09:22:41.825Z,54.16
2023-03-22T09:25:12.524Z,53.86
2023-03-22T09:27:41.959Z,53.58
2023-03-22T09:30:09.185Z,54.51
2023-03-22T09:32:35.904Z,53.31
2023-03-22T09:35:04.262Z,53.54
2023-03-22T09:37:39.192Z,53.03
2023-03-22T09:40:07.792Z,53.08
2023-03-22T09:42:47.324Z,53.32
2023-03-22T09:45:20.503Z,52.63
2023-03-22T09:47:51.078Z,52.00
2023-03-22T09:50:23.701Z,52.19
2023-03-22T09:52:51.258Z,51.17
2023-03-22T09:55:30.326Z,50.81
2023-03-22T09:58:13.684Z,50.59
2023-03-22T10:00:51.191Z,50.84
2023-03-22T10:03:42.489Z,49.80
2023-03-22T10:06:12.391Z,50.26
2023-03-22T10:08:54.110Z,49.29
2023-03-22T10:11:57.282Z,49.17
2023-03-22T10:14:36.928Z,48.69
2023-03-22T10:17:08.784Z,48.83
2023-03-22T10:19:47.129Z,49.45
2023-03-22T10:22:16.958Z,48.45
2023-03-22T10:24:46.820Z,48.26
2023-03-22T10:27:19.574Z,47.86
2023-03-22T10:29:51.145Z,47.62
2023-03-22T10:32:22.480Z,46.94
2023-03-22T10:34:49.428Z,46.51
2023-03-22T10:37:27.848Z,45.65
2023-03-22T10:39:57.995Z,44.53
2023-03-22T10:42:27.925Z,44.51
2023-03-22T10:44:56.110Z,44.34
2023-03-22T10:47:40.312Z,44.00
2023-03-22T10:50:26.500Z,44.85
2023-03-22T10:53:04.532Z,44.25
2023-03-22T10:55:31.095Z,44.38
2023-03-22T10:58:16.582Z,43.11
2023-03-22T11:00:49.144Z,42.64
2023-03-22T11:03:34.457Z,42.05
2023-03-22T11:06:12.793Z,42.42
2023-03-22T11:08:46.833Z,42.75
2023-03-22T11:11:17.460Z,42.20
2023-03-22T11:13:50.308Z,42.64
2023-03-22T11:16:18.041Z,41.45
2023-03-22T11:18:44.574Z,41.07
2023-03-22T11:21:15.030Z,40.61
2023-03-22T11:23:50.605Z,40.44
2023-03-22T11:29:04.503Z,40.47
2023-03-22T11:31:48.883Z,40.69
2023-03-22T11:34:18.649Z,41.82
2023-03-22T11:36:52.701Z,41.48
2023-03-22T11:39:19.120Z,42.10
2023-03-22T11:41:45.737Z,40.81
2023-03-22T11:44:16.549Z,40.48
2023-03-22T11:46:54.462Z,41.04
2023-03-22T11:49:27.009Z,40.39
2023-03-22T11:51:55.633Z,39.80
2023-03-22T11:54:35.485Z,39.40
2023-03-22T11:57:13.006Z,40.02
2023-03-22T11:59:53.229Z,38.60
2023-03-22T12:02:38.032Z,38.68
2023-03-22T12:05:11.102Z,38.19
2023-03-22T12:07:38.546Z,37.28
2023-03-22T12:10:22.803Z,36.51
2023-03-22T12:12:58.191Z,36.27
2023-03-22T12:15:34.597Z,37.14
2023-03-22T12:18:15.637Z,36.39
2023-03-22T12:20:53.568Z,36.35
2023-03-22T12:23:23.263Z,36.71
2023-03-22T12:26:02.264Z,36.38
2023-03-22T12:28:34.368Z,36.99
2023-03-22T12:31:03.662Z,36.30
2023-03-22T12:33:47.256Z,37.77
2023-03-22T12:36:20.526Z,38.49
2023-03-22T12:38:54.022Z,38.40
2023-03-22T12:41:37.263Z,38.07
2023-03-22T12:44:08.066Z,38.67
2023-03-22T12:46:39.947Z,38.86
2023-03-22T12:49:26.337Z,39.12
2023-03-22T12:51:56.718Z,38.65
2023-03-22T12:54:25.325Z,38.59
2023-03-22T12:56:53.669Z,39.03
2023-03-22T12:59:26.520Z,38.15
2023-03-22T13:02:20.157Z,38.40
2023-03-22T13:04:57.972Z,38.07
2023-03-22T13:07:38.919Z,37.55
2023-03-22T13:10:34.065Z,37.75
2023-03-22T13:13:21.746Z,38.10
2023-03-22T13:15:59.257Z,38.64
2023-03-22T13:18:38.241Z,38.35
2023-03-22T13:21:29.767Z,36.84
2023-03-22T13:24:05.886Z,36.76
2023-03-22T13:26:52.707Z,35.65
2023-03-22T13:29:20.891Z,35.54
2023-03-22T13:31:58.511Z,35.37
2023-03-22T13:34:38.500Z,34.98
2023-03-22T13:37:10.987Z,34.35
2023-03-22T13:39:39.270Z,35.50
2023-03-22T13:42:19.794Z,34.35
2023-03-22T13:44:53.799Z,33.99
2023-03-22T13:47:45.774Z,33.64
2023-03-22T13:50:18.709Z,33.71
2023-03-22T13:53:03.798Z,34.50
2023-03-22T13:55:53.268Z,33.71
2023-03-22T13:58:52.291Z,33.51
2023-03-22T14:01:29.933Z,32.81
2023-03-22T14:04:01.154Z,33.07
2023-03-22T14:06:33.677Z,33.38
2023-03-22T14:09:43.517Z,33.70
2023-03-22T14:12:32.362Z,33.38
2023-03-22T14:15:02.608Z,32.91
2023-03-22T14:17:41.870Z,32.16
2023-03-22T14:20:15.253Z,31.61
